Aberdeen, Washington
Current Conditions -  °F | °C
As of 7:53 PM on Friday 24 Oct 2014 (Local Time) from KHQM Reporting Station
Light Rain Light Rain  
Wind Chill: 12°   Ceiling: 7000
Heat Index: 12°   Visibility: 7mi
Dew Point:   Wind: 8mph
Humidity: 86%   Direction: 50°NE
Pressure: 29.79"   Gusts: NA
Location:  46.98°N, 123.81°W
Report Text: KHQM 250253Z AUTO 05007KT 7SM -RA OVC070 12/09 A2979 RMK AO2 SLP092 P0002 60003 T01170094 56018
Loading
Personal Weather Stations






























Interactive Weather Map
Tropical Storm Tracking
New forecast layout! Learn more

10-Day Weather Forecast

Advertisements
Track Severe Weather on mobile